sensor_id;sensor_type;location;lat;lon;timestamp;temperature;humidity
9808;DHT22;4943;52.550;13.462;2023-05-14T00:01:56;16.40;91.90
9808;DHT22;4943;52.550;13.462;2023-05-14T00:04:24;16.40;92.00
9808;DHT22;4943;52.550;13.462;2023-05-14T00:06:52;16.40;92.10
9808;DHT22;4943;52.550;13.462;2023-05-14T00:09:20;16.40;92.10
9808;DHT22;4943;52.550;13.462;2023-05-14T00:11:48;16.30;92.20
9808;DHT22;4943;52.550;13.462;2023-05-14T00:14:17;16.30;92.30
9808;DHT22;4943;52.550;13.462;2023-05-14T00:16:45;16.30;92.50
9808;DHT22;4943;52.550;13.462;2023-05-14T00:19:13;16.30;92.50
9808;DHT22;4943;52.550;13.462;2023-05-14T00:21:42;16.30;92.70
9808;DHT22;4943;52.550;13.462;2023-05-14T00:24:09;16.20;92.70
9808;DHT22;4943;52.550;13.462;2023-05-14T00:26:38;16.20;92.80
9808;DHT22;4943;52.550;13.462;2023-05-14T00:29:06;16.10;93.00
9808;DHT22;4943;52.550;13.462;2023-05-14T00:31:35;16.10;93.00
9808;DHT22;4943;52.550;13.462;2023-05-14T00:34:03;16.10;93.20
9808;DHT22;4943;52.550;13.462;2023-05-14T00:36:31;16.10;93.20
9808;DHT22;4943;52.550;13.462;2023-05-14T00:38:59;16.10;93.30
9808;DHT22;4943;52.550;13.462;2023-05-14T00:41:27;16.10;93.30
9808;DHT22;4943;52.550;13.462;2023-05-14T00:43:55;16.10;93.40
9808;DHT22;4943;52.550;13.462;2023-05-14T00:46:23;16.10;93.40
9808;DHT22;4943;52.550;13.462;2023-05-14T00:48:52;16.10;93.50
9808;DHT22;4943;52.550;13.462;2023-05-14T00:51:21;16.10;93.70
9808;DHT22;4943;52.550;13.462;2023-05-14T00:53:49;16.00;93.60
9808;DHT22;4943;52.550;13.462;2023-05-14T00:56:18;16.00;93.80
9808;DHT22;4943;52.550;13.462;2023-05-14T00:58:47;16.00;93.80
9808;DHT22;4943;52.550;13.462;2023-05-14T01:01:15;16.00;93.80
9808;DHT22;4943;52.550;13.462;2023-05-14T01:03:44;16.00;93.80
9808;DHT22;4943;52.550;13.462;2023-05-14T01:06:19;16.00;93.80
9808;DHT22;4943;52.550;13.462;2023-05-14T01:08:55;15.90;93.80
9808;DHT22;4943;52.550;13.462;2023-05-14T01:11:28;15.90;93.90
9808;DHT22;4943;52.550;13.462;2023-05-14T01:14:02;15.90;94.20
9808;DHT22;4943;52.550;13.462;2023-05-14T01:16:35;15.90;94.00
9808;DHT22;4943;52.550;13.462;2023-05-14T01:19:05;15.80;94.10
9808;DHT22;4943;52.550;13.462;2023-05-14T01:21:41;15.80;94.00
9808;DHT22;4943;52.550;13.462;2023-05-14T01:24:09;15.80;94.10
9808;DHT22;4943;52.550;13.462;2023-05-14T01:26:37;15.70;94.10
9808;DHT22;4943;52.550;13.462;2023-05-14T01:29:12;15.60;94.10
9808;DHT22;4943;52.550;13.462;2023-05-14T01:31:42;15.60;94.20
9808;DHT22;4943;52.550;13.462;2023-05-14T01:34:13;15.60;94.30
9808;DHT22;4943;52.550;13.462;2023-05-14T01:36:43;15.50;94.30
9808;DHT22;4943;52.550;13.462;2023-05-14T01:39:12;15.50;94.30
9808;DHT22;4943;52.550;13.462;2023-05-14T01:41:41;15.50;94.40
9808;DHT22;4943;52.550;13.462;2023-05-14T01:44:11;15.50;94.40
9808;DHT22;4943;52.550;13.462;2023-05-14T01:46:39;15.40;94.50
9808;DHT22;4943;52.550;13.462;2023-05-14T01:49:07;15.40;94.50
9808;DHT22;4943;52.550;13.462;2023-05-14T01:51:35;15.30;94.50
9808;DHT22;4943;52.550;13.462;2023-05-14T01:54:04;15.30;94.90
9808;DHT22;4943;52.550;13.462;2023-05-14T01:56:32;15.30;94.70
9808;DHT22;4943;52.550;13.462;2023-05-14T01:59:00;15.20;94.70
9808;DHT22;4943;52.550;13.462;2023-05-14T02:01:28;15.20;94.70
9808;DHT22;4943;52.550;13.462;2023-05-14T02:03:57;15.10;94.80
9808;DHT22;4943;52.550;13.462;2023-05-14T02:06:25;15.10;95.10
9808;DHT22;4943;52.550;13.462;2023-05-14T02:08:53;15.10;94.80
9808;DHT22;4943;52.550;13.462;2023-05-14T02:11:23;15.10;94.90
9808;DHT22;4943;52.550;13.462;2023-05-14T02:13:51;15.10;94.90
9808;DHT22;4943;52.550;13.462;2023-05-14T02:16:19;15.00;94.90
9808;DHT22;4943;52.550;13.462;2023-05-14T02:18:47;15.00;95.00
9808;DHT22;4943;52.550;13.462;2023-05-14T02:21:15;15.10;95.10
9808;DHT22;4943;52.550;13.462;2023-05-14T02:23:43;15.10;95.20
9808;DHT22;4943;52.550;13.462;2023-05-14T02:26:11;15.10;95.30
9808;DHT22;4943;52.550;13.462;2023-05-14T02:28:41;15.10;95.30
9808;DHT22;4943;52.550;13.462;2023-05-14T02:31:09;15.20;95.30
9808;DHT22;4943;52.550;13.462;2023-05-14T02:33:38;15.20;95.40
9808;DHT22;4943;52.550;13.462;2023-05-14T02:36:06;15.30;95.60
9808;DHT22;4943;52.550;13.462;2023-05-14T02:38:34;15.30;95.20
9808;DHT22;4943;52.550;13.462;2023-05-14T02:41:02;15.40;95.20
9808;DHT22;4943;52.550;13.462;2023-05-14T02:43:30;15.40;95.10
9808;DHT22;4943;52.550;13.462;2023-05-14T02:46:00;15.50;95.00
9808;DHT22;4943;52.550;13.462;2023-05-14T02:48:28;15.50;94.90
9808;DHT22;4943;52.550;13.462;2023-05-14T02:50:56;15.60;94.70
9808;DHT22;4943;52.550;13.462;2023-05-14T02:53:24;15.60;94.60
9808;DHT22;4943;52.550;13.462;2023-05-14T02:55:51;15.60;94.40
9808;DHT22;4943;52.550;13.462;2023-05-14T02:58:19;15.60;94.30
9808;DHT22;4943;52.550;13.462;2023-05-14T03:00:54;15.70;94.20
9808;DHT22;4943;52.550;13.462;2023-05-14T03:03:24;15.70;94.00
9808;DHT22;4943;52.550;13.462;2023-05-14T03:05:52;15.70;93.90
9808;DHT22;4943;52.550;13.462;2023-05-14T03:08:20;15.70;93.80
9808;DHT22;4943;52.550;13.462;2023-05-14T03:10:48;15.80;93.70
9808;DHT22;4943;52.550;13.462;2023-05-14T03:13:16;15.80;93.60
9808;DHT22;4943;52.550;13.462;2023-05-14T03:15:46;15.80;93.50
9808;DHT22;4943;52.550;13.462;2023-05-14T03:18:14;15.90;93.40
9808;DHT22;4943;52.550;13.462;2023-05-14T03:20:44;15.90;93.20
9808;DHT22;4943;52.550;13.462;2023-05-14T03:23:12;15.90;93.10
9808;DHT22;4943;52.550;13.462;2023-05-14T03:25:40;15.90;93.40
9808;DHT22;4943;52.550;13.462;2023-05-14T03:28:08;15.90;93.00
9808;DHT22;4943;52.550;13.462;2023-05-14T03:30:36;16.00;92.90
9808;DHT22;4943;52.550;13.462;2023-05-14T03:33:04;16.00;92.80
9808;DHT22;4943;52.550;13.462;2023-05-14T03:35:32;16.00;92.70
9808;DHT22;4943;52.550;13.462;2023-05-14T03:38:02;16.00;92.70
9808;DHT22;4943;52.550;13.462;2023-05-14T03:40:32;16.00;92.70
9808;DHT22;4943;52.550;13.462;2023-05-14T03:43:00;16.10;92.60
9808;DHT22;4943;52.550;13.462;2023-05-14T03:45:28;16.10;92.50
9808;DHT22;4943;52.550;13.462;2023-05-14T03:47:56;16.10;92.50
9808;DHT22;4943;52.550;13.462;2023-05-14T03:50:25;16.10;92.40
9808;DHT22;4943;52.550;13.462;2023-05-14T03:52:53;16.10;92.30
9808;DHT22;4943;52.550;13.462;2023-05-14T03:55:22;16.20;92.30
9808;DHT22;4943;52.550;13.462;2023-05-14T03:57:50;16.20;92.30
9808;DHT22;4943;52.550;13.462;2023-05-14T04:00:18;16.20;92.20
9808;DHT22;4943;52.550;13.462;2023-05-14T04:02:47;16.20;92.10
9808;DHT22;4943;52.550;13.462;2023-05-14T04:05:16;16.20;92.10
9808;DHT22;4943;52.550;13.462;2023-05-14T04:07:44;16.20;92.10
9808;DHT22;4943;52.550;13.462;2023-05-14T04:10:12;16.30;92.10
9808;DHT22;4943;52.550;13.462;2023-05-14T04:12:42;16.30;92.10
9808;DHT22;4943;52.550;13.462;2023-05-14T04:15:10;16.30;92.10
9808;DHT22;4943;52.550;13.462;2023-05-14T04:17:38;16.40;92.10
9808;DHT22;4943;52.550;13.462;2023-05-14T04:20:07;16.40;92.00
9808;DHT22;4943;52.550;13.462;2023-05-14T04:22:35;16.40;91.80
9808;DHT22;4943;52.550;13.462;2023-05-14T04:25:04;16.40;91.80
9808;DHT22;4943;52.550;13.462;2023-05-14T04:27:32;16.40;91.70
9808;DHT22;4943;52.550;13.462;2023-05-14T04:30:02;16.30;91.70
9808;DHT22;4943;52.550;13.462;2023-05-14T04:32:31;16.30;91.70
9808;DHT22;4943;52.550;13.462;2023-05-14T04:34:59;16.30;91.60
9808;DHT22;4943;52.550;13.462;2023-05-14T04:37:27;16.30;91.60
9808;DHT22;4943;52.550;13.462;2023-05-14T04:39:55;16.20;91.60
9808;DHT22;4943;52.550;13.462;2023-05-14T04:42:23;16.20;91.60
9808;DHT22;4943;52.550;13.462;2023-05-14T04:44:51;16.20;91.60
9808;DHT22;4943;52.550;13.462;2023-05-14T04:47:20;16.20;91.70
9808;DHT22;4943;52.550;13.462;2023-05-14T04:49:49;16.30;91.80
9808;DHT22;4943;52.550;13.462;2023-05-14T04:52:17;16.30;91.80
9808;DHT22;4943;52.550;13.462;2023-05-14T04:54:44;16.40;91.90
9808;DHT22;4943;52.550;13.462;2023-05-14T04:57:13;16.40;92.30
9808;DHT22;4943;52.550;13.462;2023-05-14T04:59:41;16.50;91.90
9808;DHT22;4943;52.550;13.462;2023-05-14T05:02:09;16.60;91.90
9808;DHT22;4943;52.550;13.462;2023-05-14T05:04:38;16.70;91.90
9808;DHT22;4943;52.550;13.462;2023-05-14T05:07:06;16.80;91.90
9808;DHT22;4943;52.550;13.462;2023-05-14T05:09:34;16.80;91.80
9808;DHT22;4943;52.550;13.462;2023-05-14T05:12:02;16.90;91.80
9808;DHT22;4943;52.550;13.462;2023-05-14T05:14:31;17.00;91.80
9808;DHT22;4943;52.550;13.462;2023-05-14T05:16:59;17.00;91.70
9808;DHT22;4943;52.550;13.462;2023-05-14T05:19:27;17.00;91.60
9808;DHT22;4943;52.550;13.462;2023-05-14T05:22:10;17.00;91.60
9808;DHT22;4943;52.550;13.462;2023-05-14T05:24:38;16.90;91.60
9808;DHT22;4943;52.550;13.462;2023-05-14T05:27:06;16.90;91.60
9808;DHT22;4943;52.550;13.462;2023-05-14T05:29:35;16.90;91.60
9808;DHT22;4943;52.550;13.462;2023-05-14T05:32:04;17.00;91.80
9808;DHT22;4943;52.550;13.462;2023-05-14T05:34:33;17.00;91.90
9808;DHT22;4943;52.550;13.462;2023-05-14T05:37:01;17.10;92.30
9808;DHT22;4943;52.550;13.462;2023-05-14T05:39:32;17.20;91.80
9808;DHT22;4943;52.550;13.462;2023-05-14T05:42:01;17.30;91.70
9808;DHT22;4943;52.550;13.462;2023-05-14T05:44:29;17.30;91.60
9808;DHT22;4943;52.550;13.462;2023-05-14T05:46:57;17.40;91.50
9808;DHT22;4943;52.550;13.462;2023-05-14T05:49:25;17.40;91.30
9808;DHT22;4943;52.550;13.462;2023-05-14T05:51:53;17.40;91.30
9808;DHT22;4943;52.550;13.462;2023-05-14T05:54:22;17.40;91.30
9808;DHT22;4943;52.550;13.462;2023-05-14T05:56:52;17.40;91.30
9808;DHT22;4943;52.550;13.462;2023-05-14T05:59:20;17.50;91.40
9808;DHT22;4943;52.550;13.462;2023-05-14T06:01:48;17.60;91.50
9808;DHT22;4943;52.550;13.462;2023-05-14T06:04:16;17.80;91.50
9808;DHT22;4943;52.550;13.462;2023-05-14T06:06:44;17.90;91.40
9808;DHT22;4943;52.550;13.462;2023-05-14T06:09:12;18.00;91.40
9808;DHT22;4943;52.550;13.462;2023-05-14T06:11:40;18.20;91.40
9808;DHT22;4943;52.550;13.462;2023-05-14T06:14:09;18.30;91.20
9808;DHT22;4943;52.550;13.462;2023-05-14T06:16:37;18.40;91.00
9808;DHT22;4943;52.550;13.462;2023-05-14T06:19:05;18.50;90.80
9808;DHT22;4943;52.550;13.462;2023-05-14T06:21:34;18.50;90.60
9808;DHT22;4943;52.550;13.462;2023-05-14T06:24:02;18.60;90.60
9808;DHT22;4943;52.550;13.462;2023-05-14T06:26:30;18.60;90.60
9808;DHT22;4943;52.550;13.462;2023-05-14T06:28:58;18.60;90.50
9808;DHT22;4943;52.550;13.462;2023-05-14T06:31:27;18.70;90.60
9808;DHT22;4943;52.550;13.462;2023-05-14T06:33:55;18.70;90.50
9808;DHT22;4943;52.550;13.462;2023-05-14T06:36:23;18.80;90.60
9808;DHT22;4943;52.550;13.462;2023-05-14T06:38:51;18.80;90.40
9808;DHT22;4943;52.550;13.462;2023-05-14T06:41:19;18.90;90.50
9808;DHT22;4943;52.550;13.462;2023-05-14T06:43:48;19.00;90.50
9808;DHT22;4943;52.550;13.462;2023-05-14T06:46:16;19.10;90.40
9808;DHT22;4943;52.550;13.462;2023-05-14T06:48:45;19.20;90.00
9808;DHT22;4943;52.550;13.462;2023-05-14T06:51:13;19.30;90.00
9808;DHT22;4943;52.550;13.462;2023-05-14T06:53:41;19.30;90.00
9808;DHT22;4943;52.550;13.462;2023-05-14T06:56:09;19.40;90.00
9808;DHT22;4943;52.550;13.462;2023-05-14T06:58:38;19.50;89.70
9808;DHT22;4943;52.550;13.462;2023-05-14T07:01:06;19.60;89.00
9808;DHT22;4943;52.550;13.462;2023-05-14T07:03:34;19.60;89.10
9808;DHT22;4943;52.550;13.462;2023-05-14T07:06:04;19.60;89.00
9808;DHT22;4943;52.550;13.462;2023-05-14T07:08:33;19.70;89.00
9808;DHT22;4943;52.550;13.462;2023-05-14T07:11:01;19.70;88.70
9808;DHT22;4943;52.550;13.462;2023-05-14T07:13:29;19.80;88.80
9808;DHT22;4943;52.550;13.462;2023-05-14T07:15:57;19.80;89.00
9808;DHT22;4943;52.550;13.462;2023-05-14T07:18:26;19.90;88.60
9808;DHT22;4943;52.550;13.462;2023-05-14T07:20:54;20.00;88.70
9808;DHT22;4943;52.550;13.462;2023-05-14T07:23:23;20.00;87.90
9808;DHT22;4943;52.550;13.462;2023-05-14T07:25:51;20.10;88.10
9808;DHT22;4943;52.550;13.462;2023-05-14T07:28:19;20.00;88.10
9808;DHT22;4943;52.550;13.462;2023-05-14T07:30:47;20.10;88.10
9808;DHT22;4943;52.550;13.462;2023-05-14T07:33:15;20.10;88.00
9808;DHT22;4943;52.550;13.462;2023-05-14T07:35:43;20.20;88.00
9808;DHT22;4943;52.550;13.462;2023-05-14T07:38:11;20.30;87.70
9808;DHT22;4943;52.550;13.462;2023-05-14T07:40:41;20.30;88.10
9808;DHT22;4943;52.550;13.462;2023-05-14T07:43:09;20.50;88.00
9808;DHT22;4943;52.550;13.462;2023-05-14T07:45:37;20.60;87.20
9808;DHT22;4943;52.550;13.462;2023-05-14T07:48:05;20.70;87.50
9808;DHT22;4943;52.550;13.462;2023-05-14T07:50:34;20.80;87.40
9808;DHT22;4943;52.550;13.462;2023-05-14T07:53:02;20.90;86.60
9808;DHT22;4943;52.550;13.462;2023-05-14T07:55:30;21.00;85.90
9808;DHT22;4943;52.550;13.462;2023-05-14T07:57:59;21.10;85.80
9808;DHT22;4943;52.550;13.462;2023-05-14T08:00:27;21.10;84.40
9808;DHT22;4943;52.550;13.462;2023-05-14T08:02:55;21.10;84.30
9808;DHT22;4943;52.550;13.462;2023-05-14T08:05:24;21.10;84.10
9808;DHT22;4943;52.550;13.462;2023-05-14T08:07:52;21.20;85.50
9808;DHT22;4943;52.550;13.462;2023-05-14T08:10:20;21.30;85.30
9808;DHT22;4943;52.550;13.462;2023-05-14T08:12:49;21.40;84.00
9808;DHT22;4943;52.550;13.462;2023-05-14T08:15:18;21.50;84.90
9808;DHT22;4943;52.550;13.462;2023-05-14T08:17:46;21.70;84.50
9808;DHT22;4943;52.550;13.462;2023-05-14T08:20:14;21.80;83.80
9808;DHT22;4943;52.550;13.462;2023-05-14T08:22:42;21.80;83.80
9808;DHT22;4943;52.550;13.462;2023-05-14T08:25:10;21.90;83.40
9808;DHT22;4943;52.550;13.462;2023-05-14T08:27:39;22.00;84.10
9808;DHT22;4943;52.550;13.462;2023-05-14T08:30:07;22.20;84.10
9808;DHT22;4943;52.550;13.462;2023-05-14T08:32:37;22.20;81.90
9808;DHT22;4943;52.550;13.462;2023-05-14T08:35:05;22.10;81.40
9808;DHT22;4943;52.550;13.462;2023-05-14T08:37:34;22.20;82.40
9808;DHT22;4943;52.550;13.462;2023-05-14T08:40:02;22.30;82.30
9808;DHT22;4943;52.550;13.462;2023-05-14T08:42:30;22.40;82.50
9808;DHT22;4943;52.550;13.462;2023-05-14T08:45:00;22.50;81.80
9808;DHT22;4943;52.550;13.462;2023-05-14T08:47:29;22.60;82.40
9808;DHT22;4943;52.550;13.462;2023-05-14T08:50:01;22.80;82.50
9808;DHT22;4943;52.550;13.462;2023-05-14T08:52:30;23.00;82.70
9808;DHT22;4943;52.550;13.462;2023-05-14T08:55:00;23.00;81.10
9808;DHT22;4943;52.550;13.462;2023-05-14T08:57:31;23.10;81.30
9808;DHT22;4943;52.550;13.462;2023-05-14T09:00:00;23.10;80.00
9808;DHT22;4943;52.550;13.462;2023-05-14T09:02:32;23.10;79.10
9808;DHT22;4943;52.550;13.462;2023-05-14T09:05:02;23.10;79.60
9808;DHT22;4943;52.550;13.462;2023-05-14T09:07:30;23.10;79.20
9808;DHT22;4943;52.550;13.462;2023-05-14T09:10:01;23.10;80.30
9808;DHT22;4943;52.550;13.462;2023-05-14T09:12:29;23.20;78.30
9808;DHT22;4943;52.550;13.462;2023-05-14T09:14:57;23.30;79.90
9808;DHT22;4943;52.550;13.462;2023-05-14T09:17:25;23.40;79.10
9808;DHT22;4943;52.550;13.462;2023-05-14T09:19:54;23.50;77.90
9808;DHT22;4943;52.550;13.462;2023-05-14T09:22:23;23.50;78.50
9808;DHT22;4943;52.550;13.462;2023-05-14T09:25:02;23.50;78.30
9808;DHT22;4943;52.550;13.462;2023-05-14T09:27:31;23.50;77.40
9808;DHT22;4943;52.550;13.462;2023-05-14T09:30:07;23.50;77.40
9808;DHT22;4943;52.550;13.462;2023-05-14T09:32:37;23.50;76.20
9808;DHT22;4943;52.550;13.462;2023-05-14T09:35:13;23.30;76.30
9808;DHT22;4943;52.550;13.462;2023-05-14T09:37:46;23.10;76.90
9808;DHT22;4943;52.550;13.462;2023-05-14T09:40:15;23.00;77.00
9808;DHT22;4943;52.550;13.462;2023-05-14T09:42:44;22.70;76.00
9808;DHT22;4943;52.550;13.462;2023-05-14T09:45:12;22.50;76.20
9808;DHT22;4943;52.550;13.462;2023-05-14T09:47:40;22.40;76.40
9808;DHT22;4943;52.550;13.462;2023-05-14T09:50:08;22.40;76.20
9808;DHT22;4943;52.550;13.462;2023-05-14T09:52:37;22.30;77.40
9808;DHT22;4943;52.550;13.462;2023-05-14T09:55:07;22.30;77.00
9808;DHT22;4943;52.550;13.462;2023-05-14T09:57:35;22.30;76.40
9808;DHT22;4943;52.550;13.462;2023-05-14T10:00:04;22.30;76.00
9808;DHT22;4943;52.550;13.462;2023-05-14T10:02:35;22.20;76.30
9808;DHT22;4943;52.550;13.462;2023-05-14T10:05:05;22.20;77.10
9808;DHT22;4943;52.550;13.462;2023-05-14T10:07:38;22.20;77.40
9808;DHT22;4943;52.550;13.462;2023-05-14T10:10:12;22.20;77.40
9808;DHT22;4943;52.550;13.462;2023-05-14T10:12:45;22.20;77.30
9808;DHT22;4943;52.550;13.462;2023-05-14T10:15:19;22.20;77.50
9808;DHT22;4943;52.550;13.462;2023-05-14T10:17:55;22.00;76.80
9808;DHT22;4943;52.550;13.462;2023-05-14T10:20:26;21.90;77.10
9808;DHT22;4943;52.550;13.462;2023-05-14T10:22:55;21.90;77.40
9808;DHT22;4943;52.550;13.462;2023-05-14T10:25:25;21.90;77.80
9808;DHT22;4943;52.550;13.462;2023-05-14T10:27:53;21.90;76.80
9808;DHT22;4943;52.550;13.462;2023-05-14T10:30:21;21.80;76.90
9808;DHT22;4943;52.550;13.462;2023-05-14T10:33:05;21.90;77.30
9808;DHT22;4943;52.550;13.462;2023-05-14T10:35:55;22.00;77.60
9808;DHT22;4943;52.550;13.462;2023-05-14T10:38:25;22.10;76.40
9808;DHT22;4943;52.550;13.462;2023-05-14T10:40:58;22.10;76.10
9808;DHT22;4943;52.550;13.462;2023-05-14T10:43:27;22.10;75.60
9808;DHT22;4943;52.550;13.462;2023-05-14T10:45:57;22.10;75.70
9808;DHT22;4943;52.550;13.462;2023-05-14T10:48:26;22.20;76.30
9808;DHT22;4943;52.550;13.462;2023-05-14T10:50:55;22.30;75.50
9808;DHT22;4943;52.550;13.462;2023-05-14T10:53:34;22.30;75.80
9808;DHT22;4943;52.550;13.462;2023-05-14T10:56:06;22.40;76.40
9808;DHT22;4943;52.550;13.462;2023-05-14T10:58:35;22.50;76.90
9808;DHT22;4943;52.550;13.462;2023-05-14T11:01:05;22.80;77.10
9808;DHT22;4943;52.550;13.462;2023-05-14T11:03:39;22.90;76.40
9808;DHT22;4943;52.550;13.462;2023-05-14T11:06:09;22.90;74.70
9808;DHT22;4943;52.550;13.462;2023-05-14T11:08:37;22.80;74.60
9808;DHT22;4943;52.550;13.462;2023-05-14T11:11:08;22.60;74.50
9808;DHT22;4943;52.550;13.462;2023-05-14T11:13:36;22.50;75.70
9808;DHT22;4943;52.550;13.462;2023-05-14T11:16:05;22.50;75.40
9808;DHT22;4943;52.550;13.462;2023-05-14T11:18:53;22.50;75.70
9808;DHT22;4943;52.550;13.462;2023-05-14T11:21:27;22.60;76.40
9808;DHT22;4943;52.550;13.462;2023-05-14T11:23:56;22.70;76.70
9808;DHT22;4943;52.550;13.462;2023-05-14T11:26:25;22.80;76.80
9808;DHT22;4943;52.550;13.462;2023-05-14T11:28:53;23.00;76.90
9808;DHT22;4943;52.550;13.462;2023-05-14T11:31:21;23.20;76.50
9808;DHT22;4943;52.550;13.462;2023-05-14T11:33:51;23.30;76.40
9808;DHT22;4943;52.550;13.462;2023-05-14T11:36:19;23.50;76.40
9808;DHT22;4943;52.550;13.462;2023-05-14T11:38:48;23.70;76.80
9808;DHT22;4943;52.550;13.462;2023-05-14T11:41:17;23.80;76.80
9808;DHT22;4943;52.550;13.462;2023-05-14T11:43:48;23.90;76.40
9808;DHT22;4943;52.550;13.462;2023-05-14T11:46:17;24.00;76.50
9808;DHT22;4943;52.550;13.462;2023-05-14T11:48:45;24.00;76.40
9808;DHT22;4943;52.550;13.462;2023-05-14T11:51:13;24.10;76.40
9808;DHT22;4943;52.550;13.462;2023-05-14T11:53:41;24.20;76.20
9808;DHT22;4943;52.550;13.462;2023-05-14T11:56:09;24.30;76.40
9808;DHT22;4943;52.550;13.462;2023-05-14T11:58:37;24.30;75.80
9808;DHT22;4943;52.550;13.462;2023-05-14T12:01:12;24.30;75.40
9808;DHT22;4943;52.550;13.462;2023-05-14T12:03:40;24.20;75.30
9808;DHT22;4943;52.550;13.462;2023-05-14T12:06:08;24.00;75.00
9808;DHT22;4943;52.550;13.462;2023-05-14T12:08:37;23.90;74.80
9808;DHT22;4943;52.550;13.462;2023-05-14T12:11:05;23.70;74.20
9808;DHT22;4943;52.550;13.462;2023-05-14T12:13:33;23.50;74.30
9808;DHT22;4943;52.550;13.462;2023-05-14T12:16:03;23.40;74.80
9808;DHT22;4943;52.550;13.462;2023-05-14T12:18:33;23.30;74.70
9808;DHT22;4943;52.550;13.462;2023-05-14T12:21:02;23.10;74.40
9808;DHT22;4943;52.550;13.462;2023-05-14T12:23:31;23.00;74.80
9808;DHT22;4943;52.550;13.462;2023-05-14T12:26:03;23.00;75.40
9808;DHT22;4943;52.550;13.462;2023-05-14T12:28:34;23.00;75.80
9808;DHT22;4943;52.550;13.462;2023-05-14T12:31:09;23.00;76.10
9808;DHT22;4943;52.550;13.462;2023-05-14T12:33:38;23.10;75.40
9808;DHT22;4943;52.550;13.462;2023-05-14T12:36:06;23.20;75.20
9808;DHT22;4943;52.550;13.462;2023-05-14T12:38:47;23.20;75.00
9808;DHT22;4943;52.550;13.462;2023-05-14T12:41:16;23.30;74.80
9808;DHT22;4943;52.550;13.462;2023-05-14T12:43:46;23.50;74.70
9808;DHT22;4943;52.550;13.462;2023-05-14T12:46:14;23.70;75.40
9808;DHT22;4943;52.550;13.462;2023-05-14T12:48:44;23.90;75.70
9808;DHT22;4943;52.550;13.462;2023-05-14T12:51:12;24.20;76.10
9808;DHT22;4943;52.550;13.462;2023-05-14T12:53:41;24.40;75.60
9808;DHT22;4943;52.550;13.462;2023-05-14T12:56:09;24.70;75.10
9808;DHT22;4943;52.550;13.462;2023-05-14T12:58:37;24.80;74.30
9808;DHT22;4943;52.550;13.462;2023-05-14T13:01:05;25.00;74.00
9808;DHT22;4943;52.550;13.462;2023-05-14T13:03:34;25.10;73.20
9808;DHT22;4943;52.550;13.462;2023-05-14T13:06:03;25.10;73.60
9808;DHT22;4943;52.550;13.462;2023-05-14T13:08:32;25.20;73.30
9808;DHT22;4943;52.550;13.462;2023-05-14T13:11:00;25.20;72.20
9808;DHT22;4943;52.550;13.462;2023-05-14T13:13:28;25.10;72.10
9808;DHT22;4943;52.550;13.462;2023-05-14T13:15:56;25.00;70.70
9808;DHT22;4943;52.550;13.462;2023-05-14T13:18:24;24.90;71.10
9808;DHT22;4943;52.550;13.462;2023-05-14T13:20:53;24.70;71.80
9808;DHT22;4943;52.550;13.462;2023-05-14T13:23:22;24.60;71.20
9808;DHT22;4943;52.550;13.462;2023-05-14T13:25:50;24.50;70.80
9808;DHT22;4943;52.550;13.462;2023-05-14T13:28:18;24.40;70.60
9808;DHT22;4943;52.550;13.462;2023-05-14T13:31:03;24.30;71.10
9808;DHT22;4943;52.550;13.462;2023-05-14T13:33:33;24.20;71.10
9808;DHT22;4943;52.550;13.462;2023-05-14T13:36:02;24.20;71.00
9808;DHT22;4943;52.550;13.462;2023-05-14T13:38:31;24.10;70.90
9808;DHT22;4943;52.550;13.462;2023-05-14T13:41:00;24.00;71.50
9808;DHT22;4943;52.550;13.462;2023-05-14T13:43:29;24.00;71.10
9808;DHT22;4943;52.550;13.462;2023-05-14T13:45:57;23.90;70.80
9808;DHT22;4943;52.550;13.462;2023-05-14T13:48:25;24.00;71.80
9808;DHT22;4943;52.550;13.462;2023-05-14T13:50:54;24.10;71.70
9808;DHT22;4943;52.550;13.462;2023-05-14T13:53:22;24.30;72.10
9808;DHT22;4943;52.550;13.462;2023-05-14T13:55:52;24.50;71.80
9808;DHT22;4943;52.550;13.462;2023-05-14T13:58:22;24.60;71.00
9808;DHT22;4943;52.550;13.462;2023-05-14T14:00:51;24.60;71.10
9808;DHT22;4943;52.550;13.462;2023-05-14T14:03:19;24.60;70.20
9808;DHT22;4943;52.550;13.462;2023-05-14T14:05:47;24.70;71.30
9808;DHT22;4943;52.550;13.462;2023-05-14T14:08:15;24.90;71.80
9808;DHT22;4943;52.550;13.462;2023-05-14T14:10:51;25.10;72.60
9808;DHT22;4943;52.550;13.462;2023-05-14T14:13:21;25.30;71.50
9808;DHT22;4943;52.550;13.462;2023-05-14T14:15:49;25.30;71.00
9808;DHT22;4943;52.550;13.462;2023-05-14T14:18:17;25.20;70.90
9808;DHT22;4943;52.550;13.462;2023-05-14T14:20:45;25.20;70.50
9808;DHT22;4943;52.550;13.462;2023-05-14T14:23:13;25.20;70.90
9808;DHT22;4943;52.550;13.462;2023-05-14T14:25:41;25.20;71.60
9808;DHT22;4943;52.550;13.462;2023-05-14T14:28:11;25.20;70.80
9808;DHT22;4943;52.550;13.462;2023-05-14T14:30:39;25.20;70.60
9808;DHT22;4943;52.550;13.462;2023-05-14T14:33:07;25.10;70.30
9808;DHT22;4943;52.550;13.462;2023-05-14T14:35:35;25.00;70.10
9808;DHT22;4943;52.550;13.462;2023-05-14T14:38:03;25.00;69.70
9808;DHT22;4943;52.550;13.462;2023-05-14T14:40:32;24.90;69.80
9808;DHT22;4943;52.550;13.462;2023-05-14T14:43:00;24.80;69.70
9808;DHT22;4943;52.550;13.462;2023-05-14T14:45:30;24.70;69.30
9808;DHT22;4943;52.550;13.462;2023-05-14T14:48:24;24.50;69.40
9808;DHT22;4943;52.550;13.462;2023-05-14T14:50:52;24.40;69.50
9808;DHT22;4943;52.550;13.462;2023-05-14T14:53:21;24.30;69.80
9808;DHT22;4943;52.550;13.462;2023-05-14T14:55:50;24.20;69.90
9808;DHT22;4943;52.550;13.462;2023-05-14T14:58:19;24.20;70.00
9808;DHT22;4943;52.550;13.462;2023-05-14T15:00:51;24.10;69.50
9808;DHT22;4943;52.550;13.462;2023-05-14T15:03:19;24.00;69.40
9808;DHT22;4943;52.550;13.462;2023-05-14T15:05:48;24.00;69.60
9808;DHT22;4943;52.550;13.462;2023-05-14T15:08:16;23.90;69.40
9808;DHT22;4943;52.550;13.462;2023-05-14T15:10:44;23.80;69.10
9808;DHT22;4943;52.550;13.462;2023-05-14T15:13:13;23.60;70.20
9808;DHT22;4943;52.550;13.462;2023-05-14T15:15:41;23.50;69.00
9808;DHT22;4943;52.550;13.462;2023-05-14T15:18:10;23.30;69.10
9808;DHT22;4943;52.550;13.462;2023-05-14T15:20:38;23.10;69.60
9808;DHT22;4943;52.550;13.462;2023-05-14T15:23:06;23.00;70.00
9808;DHT22;4943;52.550;13.462;2023-05-14T15:25:37;22.90;70.40
9808;DHT22;4943;52.550;13.462;2023-05-14T15:28:05;22.90;70.40
9808;DHT22;4943;52.550;13.462;2023-05-14T15:30:34;22.90;70.50
9808;DHT22;4943;52.550;13.462;2023-05-14T15:33:02;22.90;70.20
9808;DHT22;4943;52.550;13.462;2023-05-14T15:35:32;23.00;70.30
9808;DHT22;4943;52.550;13.462;2023-05-14T15:38:00;23.10;70.40
9808;DHT22;4943;52.550;13.462;2023-05-14T15:40:28;23.10;70.00
9808;DHT22;4943;52.550;13.462;2023-05-14T15:42:56;23.20;70.10
9808;DHT22;4943;52.550;13.462;2023-05-14T15:45:24;23.20;70.10
9808;DHT22;4943;52.550;13.462;2023-05-14T15:47:52;23.20;69.60
9808;DHT22;4943;52.550;13.462;2023-05-14T15:50:20;23.10;69.70
9808;DHT22;4943;52.550;13.462;2023-05-14T15:52:50;23.10;70.10
9808;DHT22;4943;52.550;13.462;2023-05-14T15:55:18;23.10;70.50
9808;DHT22;4943;52.550;13.462;2023-05-14T15:57:46;23.10;70.20